Tiempo atmosférico en la estación meteorológica de Jaén, Jaén (582 m.)



Fecha
DESCASC
Temp. máxima en grados centígrados (hora)
DESCASC
Temp. mínima en grados centígrados (hora)
DESCASC
Temp. media en grados centígrados
DESCASC
Racha de viento máxima en m/sg (hora)
DESCASC
Velocidad máxima media en intervalos de 10 minutos(hora)
DESCASC
Precipitaciones diarias en mm
DESCASC
Precipitaciones de 00:00 a 06:00 en mm
DESCASC
Precipitaciones de 06:00 a 12:00 en mm
DESCASC
Precipitaciones de 12:00 a 18:00 en mm
DESCASC
Precipitaciones de 18:00 a 24:00 en mm
DESCASC
16-06-2019 30.2 (15:50) 16.3 (07:00) 23.3 8.61 (18:30) 4.72 (18:10) 0 0 0 0 0
15-06-2019 27.7 (18:20) 11.1 (06:50) 19.4 8.61 (00:50) 5.56 (17:50) 0 0 0 0 0
14-06-2019 23.9 (18:00) 16.9 (07:20) 20.4 13.89 (02:20) 8.06 (13:30) 0 0 0 0 0
13-06-2019 28.1 (18:10) 15.4 (00:00) 21.8 9.72 (23:30) 6.11 (22:40) 0 0 0 0 0
12-06-2019 27.5 (17:40) 14.7 (00:00) 21.1 9.72 (16:50) 4.72 (16:50) 0 0 0 0 0
11-06-2019 26.8 (17:50) 13.5 (00:00) 20.1 10.83 (14:30) 6.67 (15:20) 0 0 0 0 0
10-06-2019 27.2 (19:20) 15.7 (00:00) 21.5 13.33 (14:30) 6.11 (12:40) 0 0 0 0 0
09-06-2019 27 (17:30) 18.5 (00:00) 22.8 14.44 (14:40) 6.67 (23:10) 0 0 0 0 0
08-06-2019 30.7 (18:10) 14.3 (00:00) 22.5 11.39 (20:10) 6.67 (19:40) 0 0 0 0 0
07-06-2019 25.2 (19:30) 13.6 (00:00) 19.4 10 (02:20) 6.11 (15:50) 0 0 0 0 0
06-06-2019 27.2 (16:50) 13.1 (00:00) 20.2 13.33 (15:30) 7.5 (16:00) 0 0 0 0 0
05-06-2019 22.7 (17:40) 14.2 (00:00) 18.5 14.17 (00:40) 6.67 (00:30) 0 0 0 0 0
04-06-2019 31.2 (16:00) 18.3 (00:00) 24.8 13.06 (18:20) 6.67 (18:10) 0 0 0 0 0
03-06-2019 34.8 (17:00) 18.3 (00:00) 26.5 9.17 (17:20) 5.28 (18:50) 0 0 0 0 0
02-06-2019 34 (17:50) 17.6 (00:00) 25.8 10.28 (01:40) 4.44 (01:00) 0 0 0 0 0
01-06-2019 33.5 (17:30) 21.2 (00:00) 27.4 10.28 (03:40) 6.67 (03:40) 0 0 0 0 0
31-05-2019 32.9 (17:00) 19.8 (00:00) 26.4 14.17 (00:10) 8.61 (08:20) 0 0 0 0 0
30-05-2019 31.2 (18:40) 18.3 (00:00) 24.8 16.39 (23:50) 10.28 (23:50) 0 0 0 0 0
29-05-2019 29.5 (16:20) 16.4 (00:00) 22.9 8.33 (17:40) 3.61 (15:10) 0 0 0 0 0
28-05-2019 32.6 (18:30) 18.8 (00:00) 25.7 12.22 (00:30) 6.39 (00:10) 0 0 0 0 0
27-05-2019 31.5 (17:20) 16.5 (00:00) 24 10.83 (23:59) 5.83 (23:40) 0 0 0 0 0
26-05-2019 28.1 (19:40) 15.5 (00:00) 21.8 9.17 (14:20) 4.72 (14:20) 0 0 0 0 0
25-05-2019 26.5 (19:30) 13 (00:00) 19.8 8.61 (19:10) 4.17 (15:10) 0 0 0 0 0
24-05-2019 27.6 (19:30) 16.7 (00:00) 22.2 12.22 (01:20) 7.22 (00:50) 0 0 0 0 0
23-05-2019 30 (16:50) 16.2 (00:00) 23.1 9.72 (23:50) 5.83 (23:50) 0 0 0 0 0
22-05-2019 28.9 (18:40) 14.4 (00:00) 21.6 10.28 (00:20) 6.11 (00:10) 0 0 0 0 0
21-05-2019 26.4 (17:50) 12.6 (07:20) 19.5 10.28 (18:30) 5.56 (15:20) 0 0 0 0 0

Gráficas

Temp. máximas Temp. mínimas Temp. medias Precipitaciones Rachas de viento máximas Velocidades máximas media en intervalos de 10 minutos

Datos horarios

Fecha y hora oficial Temperatura (ºC) Velocidad del viento (km/h) Dirección del viento Racha (km/h) Dirección de racha Precipitación (mm) Presión (hPa) Tendencia (hPa) Humedad (%)
2019-06-19 23:00:00 22.9 5 Oeste 26 Sudoeste 0 948.5 0.7 36
2019-06-19 22:00:00 23.9 10 Oeste 20 Oeste 0 948.1 0.3 36
2019-06-19 21:00:00 26.5 9 Noroeste 24 Noroeste 0 948.1 0 30
2019-06-19 20:00:00 28.1 14 Oeste 29 Noroeste 0 947.8 -0.7 27
2019-06-19 19:00:00 28.6 14 Noroeste 30 Noroeste 0 947.8 -1.2 29
2019-06-19 18:00:00 28.2 17 Noroeste 33 Noroeste 0 948.1 -1.6 28
2019-06-19 17:00:00 28.2 19 Noroeste 38 Noroeste 0 948.5 -1.8 30
2019-06-19 16:00:00 27 22 Noroeste 36 Noroeste 0 949 -1.8 36
2019-06-19 15:00:00 25.9 14 Noroeste 26 Noroeste 0 949.7 -1.4 41
2019-06-19 14:00:00 24.8 11 Norte 23 Noroeste 0 950.3 -0.7 47
2019-06-19 13:00:00 22.8 12 Norte 24 Noroeste 0 950.8 -0.3 54
2019-06-19 12:00:00 20.6 8 Norte 15 Norte 0 951.1 0.2 61
2019-06-19 11:00:00 18.2 9 Noroeste 19 Noroeste 0 951 0.4 72
2019-06-19 10:00:00 17.3 12 Noroeste 21 Noroeste 0 951.1 0.9 77
2019-06-19 09:00:00 17.1 5 Norte 12 Norte 0 950.9 0.7 79
2019-06-19 08:00:00 16 6 Norte 11 Norte 0 950.6 0.6 82
2019-06-19 07:00:00 15.2 5 Sur 8 Sur 0 950.2 0.4 81
2019-06-19 06:00:00 15.7 2 Sudoeste 5 Norte 0 950.2 0.5 76
2019-06-19 05:00:00 16.9 4 Sur 8 Sur 0 950 0.1 71
2019-06-19 04:00:00 17.5 0 Calma 8 Sudeste 0 949.8 -0.3 65
2019-06-19 03:00:00 18.5 7 Sur 11 Sudeste 0 949.7 -0.5 61
2019-06-19 02:00:00 18.9 3 Sur 13 Sudoeste 0 949.9 0.1 56
2019-06-19 01:00:00 19.8 8 Sudoeste 24 Oeste 0 950.1 0.9 51
2019-06-19 00:00:00 21 14 Oeste 26 Oeste 0 950.2 1.3 51
2019-06-18 23:00:00 22.1 15 Oeste 33 Oeste 0 949.8 1.4 43
2019-06-18 22:00:00 23.4 13 Oeste 30 Oeste 0 949.2 1.1 35
2019-06-18 21:00:00 25.4 15 Noroeste 36 Noroeste 0 948.9 0.8 30
2019-06-18 20:00:00 27.1 22 Noroeste 39 Noroeste 0 948.4 0.4 27
2019-06-18 19:00:00 27.9 23 Noroeste 41 Noroeste 0 948.1 -0.4 26
2019-06-18 18:00:00 29 19 Oeste 47 Oeste 0 948.1 -0.6 28
2019-06-18 17:00:00 28.1 28 Noroeste 45 Noroeste 0 948 -1.5 29
2019-06-18 16:00:00 27.7 26 Noroeste 42 Noroeste 0 948.5 -1.2 31
2019-06-18 15:00:00 27.4 24 Noroeste 44 Norte 0 948.7 -1.2 32
2019-06-18 14:00:00 26.4 16 Noroeste 32 Noroeste 0 949.5 -0.3 33
2019-06-18 13:00:00 25.7 16 Noroeste 28 Noroeste 0 949.7 -0.1 29
2019-06-18 12:00:00 23.8 15 Noroeste 26 Norte 0 949.9 0.1 34
2019-06-18 11:00:00 22.6 10 Noroeste 21 Noroeste 0 949.8 0.2 38
2019-06-18 10:00:00 20.8 10 Noroeste 18 Noroeste 0 949.8 0.4 45
2019-06-18 09:00:00 19.5 5 Norte 11 Noroeste 0 949.8 0.7 47
2019-06-18 08:00:00 18.4 4 Este 6 Este 0 949.6 0.5 53
2019-06-18 07:00:00 16.7 4 Sur 6 Sur 0 949.4 0.1 59
2019-06-18 06:00:00 17.5 6 Sudoeste 11 Sur 0 949.1 -0.2 58
2019-06-18 05:00:00 18.4 7 Sur 11 Sur 0 949.1 -0.3 57
2019-06-18 04:00:00 18.9 4 Sudoeste 9 Sudoeste 0 949.3 -0.4 54
2019-06-18 03:00:00 20.4 2 Noroeste 9 Sur 0 949.3 -0.3 48
2019-06-18 02:00:00 22.4 6 Sur 27 Sudoeste 0 949.4 0.2 42
2019-06-18 01:00:00 22.8 16 Sudoeste 28 Sudoeste 0 949.7 1.4 46
2019-06-18 00:00:00 23.3 8 Oeste 26 Oeste 0 949.6 1.8 36
2019-06-17 23:00:00 25.1 9 Noroeste 17 Noroeste 0 949.2 1.7 29
2019-06-17 22:00:00 27.1 6 Oeste 32 Noroeste 0 948.3 1 21
2019-06-17 21:00:00 29.1 17 Oeste 33 Noroeste 0 947.8 0.2 18
2019-06-17 20:00:00 31.1 14 Noroeste 30 Noroeste 0 947.5 -0.7 18
2019-06-17 19:00:00 31.2 17 Noroeste 39 Noroeste 0 947.3 -1.6 19
2019-06-17 18:00:00 31.4 20 Noroeste 35 Noroeste 0 947.6 -2 19
2019-06-17 17:00:00 31.6 10 Noroeste 37 Noroeste 0 948.2 -2.4 20
2019-06-17 16:00:00 30.7 8 Norte 24 Norte 0 948.9 -2 23
2019-06-17 15:00:00 29.7 14 Norte 28 Norte 0 949.6 -1.7 26
2019-06-17 14:00:00 28.4 6 Norte 19 Norte 0 950.6 -1 28
2019-06-17 13:00:00 27.2 5 Norte 18 Norte 0 950.9 -1 28
2019-06-17 12:00:00 25.2 5 Este 14 Sudeste 0 951.3 -0.8 31
2019-06-17 11:00:00 23.3 5 Nordeste 14 Este 0 951.6 -0.6 37
2019-06-17 10:00:00 21.6 5 Este 12 Sudeste 0 951.9 0 41
2019-06-17 09:00:00 20 3 Este 10 Sudeste 0 952.1 0.4 45
2019-06-17 08:00:00 17.8 2 Este 10 Sur 0 952.2 0.5 51
2019-06-17 07:00:00 15.3 2 Sur 6 Sur 0 951.9 0.2 58
2019-06-17 06:00:00 15.4 3 Sur 5 Sur 0 951.7 -0.3 56
2019-06-17 05:00:00 16.4 3 Sudoeste 4 Sudoeste 0 951.7 -0.4 54
2019-06-17 04:00:00 17.9 0 Calma 9 Sur 0 951.7 -0.4 51
2019-06-17 03:00:00 18.8 5 Sur 8 Sur 0 952 -0.1 48
2019-06-17 02:00:00 21.1 2 Este 27 Sudoeste 0 952.1 0.5 42
2019-06-17 01:00:00 22.1 12 Sudoeste 26 Sudoeste 0 952.1 1.3 42
2019-06-17 00:00:00 22.9 13 Oeste 28 Oeste 0 952.1 1.7 32
2019-06-16 23:00:00 24 13 Oeste 24 Oeste 0 951.6 1.3 28
2019-06-16 22:00:00 24.8 10 Oeste 23 Oeste 0 950.8 0.8 17
2019-06-16 21:00:00 27.3 11 Oeste 23 Norte 0 950.4 0.3 17
2019-06-16 20:00:00 28.6 11 Noroeste 28 Noroeste 0 950.3 0.1 22
2019-06-16 19:00:00 28.6 14 Noroeste 31 Noroeste 0 950 -0.5 23
2019-06-16 18:00:00 28.9 15 Noroeste 29 Noroeste 0 950.1 -0.9 21
2019-06-16 17:00:00 28.7 12 Noroeste 28 Norte 0 950.2 -1.2 21
2019-06-16 16:00:00 29.6 12 Noroeste 22 Noroeste 0 950.5 -0.8 19
2019-06-16 15:00:00 28.3 13 Noroeste 22 Noroeste 0 951 -0.6 21
2019-06-16 14:00:00 26.1 9 Noroeste 15 Noroeste 0 951.4 -0.1 25
2019-06-16 13:00:00 26.4 7 Norte 15 Norte 0 951.3 0.4 24
2019-06-16 12:00:00 26.4 5 Norte 12 Norte 0 951.6 0.6 25
2019-06-16 11:00:00 24.1 5 Norte 12 Norte 0 951.5 1 29
2019-06-16 10:00:00 22.3 3 Nordeste 8 Nordeste 0 950.9 0.6 31
2019-06-16 09:00:00 20.2 3 Este 6 Sudeste 0 951 1.1 36
2019-06-16 08:00:00 18.6 0 Calma 7 Sur 0 950.5 0.6 37
2019-06-16 07:00:00 16.3 4 Sur 8 Sudoeste 0 950.3 0 40
2019-06-16 06:00:00 17 2 Sudoeste 9 Sudoeste 0 949.9 -0.9 39
2019-06-16 05:00:00 17.3 7 Sudoeste 9 Sudoeste 0 949.9 -1.5 38
2019-06-16 04:00:00 17.7 5 Sudoeste 7 Sudoeste 0 950.3 -1.5 35
2019-06-16 03:00:00 18.1 5 Sudoeste 9 Sur 0 950.8 -1.1 32
2019-06-16 02:00:00 18.8 4 Sur 8 Sudoeste 0 951.4 -0.1 29
2019-06-16 01:00:00 19.6 4 Sudoeste 6 Sudoeste 0 951.8 0.8 28
2019-06-16 00:00:00 20.6 3 Sudoeste 14 Sudoeste 0 951.9 1.2 26
2019-06-15 23:00:00 21.2 10 Oeste 13 Oeste 0 951.5 1 22
2019-06-15 22:00:00 22.7 9 Sudoeste 12 Sudoeste 0 951 0.7 22
2019-06-15 21:00:00 25.4 7 Noroeste 23 Noroeste 0 950.7 0.2 19
2019-06-15 20:00:00 26.8 15 Noroeste 30 Noroeste 0 950.5 -0.4 18
2019-06-15 19:00:00 27.2 16 Noroeste 30 Noroeste 0 950.3 -1.1 18
2019-06-15 18:00:00 27.4 14 Noroeste 28 Noroeste 0 950.5 -1.4 19
2019-06-15 17:00:00 27.3 13 Noroeste 26 Norte 0 950.9 -1.6 22
2019-06-15 16:00:00 26.3 10 Norte 27 Noroeste 0 951.4 -1.6 26
2019-06-15 15:00:00 25.3 10 Norte 21 Noroeste 0 951.9 -1.3 28
2019-06-15 14:00:00 23.5 5 Este 19 Norte 0 952.5 -0.7 32
2019-06-15 13:00:00 22.3 5 Nordeste 16 Noroeste 0 953 -0.3 33
2019-06-15 12:00:00 20.4 7 Norte 16 Norte 0 953.2 -0.1 38
2019-06-15 11:00:00 18.5 6 Norte 13 Norte 0 953.2 0.4 44
2019-06-15 10:00:00 16.6 4 Norte 9 Norte 0 953.3 0.9 55
2019-06-15 09:00:00 13.9 6 Norte 10 Norte 0 953.3 1.1 62
2019-06-15 08:00:00 12.7 5 Noroeste 8 Norte 0 952.8 0.8 66
2019-06-15 07:00:00 11.1 2 Sudoeste 8 Sudoeste 0 952.4 0.4 71
2019-06-15 06:00:00 11.9 2 Sudoeste 7 Sur 0 952.2 0.1 68
2019-06-15 05:00:00 12.5 4 Sur 8 Oeste 0 952 -0.3 66
2019-06-15 04:00:00 13.8 2 Sur 12 Este 0 952 0 60
2019-06-15 03:00:00 14.9 3 Este 13 Sur 0 952.1 0.4 56
2019-06-15 02:00:00 15.8 6 Sur 26 Noroeste 0 952.3 1.1 53
2019-06-15 01:00:00 16.5 12 Sudoeste 31 Sudoeste 0 952 1.3 52
2019-06-15 00:00:00 17.2 12 Oeste 25 Oeste 0 951.7 1.6 48
2019-06-14 23:00:00 18.1 8 Oeste 22 Oeste 0 951.2 1.7 43
2019-06-14 22:00:00 18.8 7 Sudoeste 20 Oeste 0 950.7 1.8 37
2019-06-14 21:00:00 20.4 14 Oeste 31 Oeste 0 950.1 1.3 31
2019-06-14 20:00:00 21.9 17 Oeste 38 Oeste 0 949.5 1 29
2019-06-14 19:00:00 22.6 17 Oeste 41 Noroeste 0 948.9 0.4 31
2019-06-14 18:00:00 23.4 19 Oeste 42 Noroeste 0 948.8 0.3 30
2019-06-14 17:00:00 23.1 23 Noroeste 47 Noroeste 0 948.5 -0.2 32
2019-06-14 16:00:00 23 27 Noroeste 47 Noroeste 0 948.5 0.2 33
2019-06-14 15:00:00 23.1 23 Noroeste 42 Noroeste 0 948.5 0.4 36
2019-06-14 14:00:00 22.4 18 Noroeste 50 Noroeste 0 948.7 0.7 43
2019-06-14 13:00:00 19.6 28 Noroeste 50 Noroeste 0 948.3 0.5 55
2019-06-14 12:00:00 21.4 17 Noroeste 35 Noroeste 0 948.1 0.5 50
2019-06-14 11:00:00 19.9 17 Noroeste 31 Noroeste 0 948 1 51
2019-06-14 10:00:00 18.9 15 Noroeste 29 Noroeste 0 947.8 1.5 60
2019-06-14 09:00:00 18.1 17 Noroeste 33 Oeste 0 947.6 1.9 62
2019-06-14 08:00:00 17.5 6 Oeste 17 Oeste 0 947 1.3 66
2019-06-14 07:00:00 17.1 3 Sudoeste 29 Oeste 0 946.3 0.6 67
2019-06-14 06:00:00 17.5 15 Oeste 38 Oeste 0 945.7 0.1 65
2019-06-14 05:00:00 18.7 16 Oeste 41 Oeste 0 945.7 0.2 63
2019-06-14 04:00:00 19.3 19 Oeste 44 Oeste 0 945.7 0.1 59
2019-06-14 03:00:00 19.8 23 Oeste 50 Oeste 0 945.6 0.5 50
2019-06-14 02:00:00 20.5 24 Oeste 44 Oeste 0 945.5 1 39
2019-06-14 01:00:00 21.3 21 Oeste 41 Oeste 0 945.6 2.1 35
2019-06-14 00:00:00 22.2 17 Oeste 35 Noroeste 0 945.1 2.4 37
2019-06-13 23:00:00 22.8 17 Noroeste 34 Oeste 0 944.5 2.3 42
2019-06-13 22:00:00 23.9 15 Noroeste 33 Noroeste 0 943.5 1.5 40
2019-06-13 21:00:00 25.2 18 Noroeste 33 Noroeste 0 942.7 0.6 39
2019-06-13 20:00:00 27 14 Noroeste 28 Noroeste 0 942.2 -0.3 35
2019-06-13 19:00:00 27.8 14 Oeste 29 Noroeste 0 942 -1.1 34
2019-06-13 18:00:00 27.7 15 Noroeste 28 Norte 0 942.1 -1.6 34
2019-06-13 17:00:00 27.8 14 Noroeste 27 Noroeste 0 942.5 -1.7 35
2019-06-13 16:00:00 26.9 7 Noroeste 21 Norte 0 943.1 -1.3 37
2019-06-13 15:00:00 25.9 9 Noroeste 26 Noroeste 0 943.7 -1.3 39
2019-06-13 14:00:00 24.9 5 Noroeste 21 Norte 0 944.2 -0.6 42
2019-06-13 13:00:00 23.5 5 Norte 16 Norte 0 944.4 -0.8 47
2019-06-13 12:00:00 20.3 4 Nordeste 14 Este 0 945 -0.2 57
2019-06-13 11:00:00 20.1 5 Este 13 Nordeste 0 944.8 -0.1 57
2019-06-13 10:00:00 18.5 4 Nordeste 13 Este 0 945.2 0.5 62
2019-06-13 09:00:00 17.2 4 Nordeste 10 Este 0 945.2 0.8 65
2019-06-13 08:00:00 15.8 6 Este 9 Sudeste 0 944.9 0.5 71
2019-06-13 07:00:00 15.7 3 Este 9 Sudeste 0 944.7 0.3 66
2019-06-13 06:00:00 15.8 5 Sur 8 Sur 0 944.4 0 63
2019-06-13 05:00:00 16.9 0 Calma 7 Sur 0 944.4 0.3 55
2019-06-13 04:00:00 18.4 8 Sur 17 Sur 0 944.4 0 57
2019-06-13 03:00:00 19.3 6 Sudeste 23 Sur 0 944.4 0.1 54
2019-06-13 02:00:00 20.5 13 Sur 22 Sudeste 0 944.1 0 46
2019-06-13 01:00:00 21.3 13 Sur 18 Sudeste 0 944.4 0.9 40
2019-06-13 00:00:00 22.1 9 Sudoeste 21 Oeste 0 944.3 1.1 38
2019-06-12 23:00:00 22.2 12 Oeste 23 Oeste 0 944.1 1.3 37
2019-06-12 22:00:00 23.3 10 Oeste 23 Oeste 0 943.5 0.5 37
2019-06-12 21:00:00 25.3 12 Noroeste 26 Norte 0 943.2 -0.3 32
2019-06-12 20:00:00 26.8 10 Noroeste 27 Norte 0 942.8 -1 29
2019-06-12 19:00:00 26.9 15 Noroeste 28 Noroeste 0 943 -1.4 29
2019-06-12 18:00:00 27.3 14 Noroeste 30 Noroeste 0 943.5 -1.6 28
2019-06-12 17:00:00 27.4 12 Norte 35 Norte 0 943.8 -2.1 28
2019-06-12 16:00:00 25.4 8 Este 21 Norte 0 944.4 -1.9 32
2019-06-12 15:00:00 25.3 12 Noroeste 23 Oeste 0 945.1 -1.4 34
2019-06-12 14:00:00 24.3 8 Noroeste 18 Noroeste 0 945.9 -0.6 37
2019-06-12 13:00:00 23.9 8 Noroeste 19 Norte 0 946.3 0 39
2019-06-12 12:00:00 23.3 5 Nordeste 17 Norte 0 946.5 0.4 40
2019-06-12 11:00:00 21.8 6 Norte 14 Norte 0 946.5 0.7 44
2019-06-12 10:00:00 20.1 5 Norte 18 Este 0 946.3 1 46
2019-06-12 09:00:00 19.2 8 Sudeste 19 Sur 0 946.1 1.3 56
2019-06-12 08:00:00 17.7 3 Norte 19 Sur 0 945.8 1 45
2019-06-12 07:00:00 17.1 5 Sudoeste 23 Sudeste 0 945.3 0.4 60
2019-06-12 06:00:00 17.5 11 Sudeste 24 Sudeste 0 944.8 -0.3 61
2019-06-12 05:00:00 14.8 5 Sur 8 Sur 0 944.8 -0.7 40
2019-06-12 04:00:00 16 3 Sur 9 Sur 0 944.9 -0.9 37
2019-06-12 03:00:00 16.6 4 Sur 8 Sudeste 0 945.1 -0.9 37
2019-06-12 02:00:00 17.6 4 Sudeste 9 Sur 0 945.5 -0.3 36
2019-06-12 01:00:00 17.9 4 Sudoeste 12 Nordeste 0 945.8 0.9 36
2019-06-12 00:00:00 19.5 5 Nordeste 21 Nordeste 0 946 2.1 33
2019-06-11 23:00:00 20.8 6 Norte 15 Nordeste 0 945.8 2.2 33
2019-06-11 22:00:00 22.4 8 Norte 37 Norte 0 944.9 1.5 30
2019-06-11 21:00:00 24.7 10 Noroeste 27 Norte 0 943.9 0.3 23
2019-06-11 20:00:00 26.1 15 Noroeste 28 Noroeste 0 943.6 -0.2 22
2019-06-11 19:00:00 26.3 9 Oeste 30 Noroeste 0 943.4 -0.5 27
2019-06-11 18:00:00 25.9 14 Oeste 35 Noroeste 0 943.6 -0.5 28
2019-06-11 17:00:00 26.1 14 Noroeste 36 Noroeste 0 943.8 -0.8 27
2019-06-11 16:00:00 25.6 15 Noroeste 38 Noroeste 0 943.9 -0.9 28
2019-06-11 15:00:00 25 16 Oeste 39 Noroeste 0 944.1 -0.7 29
2019-06-11 14:00:00 24 15 Noroeste 36 Noroeste 0 944.6 -0.7 26
2019-06-11 13:00:00 23.1 23 Noroeste 36 Noroeste 0 944.8 -0.8 29
2019-06-11 12:00:00 21.9 23 Noroeste 36 Noroeste 0 944.8 -0.8 42
2019-06-11 11:00:00 19.7 10 Noroeste 20 Noroeste 0 945.3 -0.4 47
2019-06-11 10:00:00 17.8 7 Norte 14 Norte 0 945.6 0.1 53
2019-06-11 09:00:00 16 5 Norte 13 Este 0 945.6 -0.1 57
2019-06-11 08:00:00 15 4 Este 8 Este 0 945.7 -0.5 60
2019-06-11 07:00:00 13.6 3 Oeste 8 Oeste 0 945.5 -0.9 60
2019-06-11 06:00:00 14.2 3 Oeste 8 Oeste 0 945.7 -1.1 59
2019-06-11 05:00:00 14.6 3 Oeste 9 Sudeste 0 946.2 -1.1 57
2019-06-11 04:00:00 16 6 Sur 11 Este 0 946.4 -1.2 53
2019-06-11 03:00:00 17.1 7 Sudeste 12 Sudeste 0 946.8 -1 49
2019-06-11 02:00:00 18.7 4 Este 29 Sudoeste 0 947.3 -0.6 43
2019-06-11 01:00:00 20.7 18 Oeste 34 Oeste 0 947.6 0.5 37
2019-06-11 00:00:00 20.4 17 Oeste 35 Oeste 0 947.8 0.8 40
2019-06-10 23:00:00 21 18 Oeste 38 Oeste 0 947.9 0.9 39
2019-06-10 22:00:00 23 8 Sudoeste 17 Noroeste 0 947.1 -0.1 28
2019-06-10 21:00:00 24.8 10 Oeste 29 Noroeste 0 947 -0.4 25
2019-06-10 20:00:00 26.5 13 Oeste 30 Oeste 0 947 -0.9 23
2019-06-10 19:00:00 26.7 14 Noroeste 30 Noroeste 0 947.2 -1.1 23
2019-06-10 18:00:00 26.5 13 Noroeste 33 Noroeste 0 947.4 -1.7 22
2019-06-10 17:00:00 26.1 15 Noroeste 39 Noroeste 0 947.9 -1.5 16
2019-06-10 16:00:00 25.9 16 Noroeste 40 Noroeste 0 948.3 -1.5 21
2019-06-10 15:00:00 24.9 19 Noroeste 48 Noroeste 0 949.1 -1 24
2019-06-10 14:00:00 24.2 16 Noroeste 32 Norte 0 949.4 -0.8 28
2019-06-10 13:00:00 23 20 Noroeste 40 Noroeste 0 949.8 -0.7 32
2019-06-10 12:00:00 22.4 19 Noroeste 34 Noroeste 0 950.1 -0.8 33
2019-06-10 11:00:00 21.7 4 Norte 15 Sudeste 0 950.2 -0.1 38
2019-06-10 10:00:00 20.1 8 Sudeste 20 Noroeste 0 950.5 0.5 43
2019-06-10 09:00:00 17.5 0 Calma 7 Nordeste 0 950.9 0.6 48
2019-06-10 08:00:00 16.9 2 Este 7 Sur 0 950.3 -0.2 50
2019-06-10 07:00:00 16 4 Sur 19 Oeste 0 950 -0.8 49
2019-06-10 06:00:00 17.1 14 Oeste 26 Oeste 0 950.3 -0.6 47
2019-06-10 05:00:00 17.7 13 Oeste 25 Oeste 0 950.5 -0.4 44
2019-06-10 04:00:00 18.3 13 Oeste 24 Oeste 0 950.8 -0.1 41
2019-06-10 03:00:00 18.9 11 Oeste 36 Oeste 0 950.9 0.3 40
2019-06-10 02:00:00 19.6 16 Oeste 33 Oeste 0 950.9 0.7 39
2019-06-10 01:00:00 19.9 14 Oeste 38 Oeste 0 950.9 1.4 38
2019-06-10 00:00:00 20.6 13 Oeste 41 Oeste 0 950.6 1.3 33
2019-06-09 23:00:00 21.5 18 Oeste 39 Oeste 0 950.2 0.9 28
2019-06-09 22:00:00 22.8 17 Oeste 31 Oeste 0 949.5 0.4 31
2019-06-09 21:00:00 24.2 16 Oeste 31 Oeste 0 949.3 0 31
2019-06-09 20:00:00 25.9 13 Oeste 30 Noroeste 0 949.3 -0.2 26
2019-06-09 19:00:00 26.6 14 Oeste 35 Oeste 0 949.1 -0.7 26
2019-06-09 18:00:00 26.2 20 Noroeste 35 Noroeste 0 949.3 -0.7 32
2019-06-09 17:00:00 26.8 14 Oeste 38 Noroeste 0 949.5 -1.1 27
2019-06-09 16:00:00 25.9 23 Noroeste 44 Noroeste 0 949.8 -1.4 35
2019-06-09 15:00:00 26 19 Noroeste 52 Noroeste 0 950 -1.5 37
2019-06-09 14:00:00 25.1 15 Noroeste 31 Noroeste 0 950.6 -1.1 39
2019-06-09 13:00:00 23.9 5 Nordeste 18 Noroeste 0 951.2 -0.7 39
2019-06-09 12:00:00 23.1 5 Este 11 Sur 0 951.5 -0.4 41
2019-06-09 11:00:00 20.6 5 Sudeste 13 Nordeste 0 951.7 0 48
2019-06-09 10:00:00 19.5 6 Noroeste 20 Noroeste 0 951.9 0.4 54
2019-06-09 09:00:00 18.9 5 Sur 12 Oeste 0 951.9 0.4 51
2019-06-09 08:00:00 19 5 Sur 21 Sudoeste 0 951.7 0.5 45
2019-06-09 07:00:00 18.8 12 Sudoeste 27 Sudoeste 0 951.5 0.2 42
2019-06-09 06:00:00 18.5 15 Oeste 31 Oeste 0 951.5 0.3 54
2019-06-09 05:00:00 19 14 Oeste 31 Oeste 0 951.2 -0.2 52
2019-06-09 04:00:00 19.2 16 Oeste 32 Noroeste 0 951.3 0.1 57
2019-06-09 03:00:00 20.5 12 Oeste 28 Noroeste 0 951.2 -0.3 47
2019-06-09 02:00:00 22.1 10 Oeste 27 Sudoeste 0 951.4 0.2 41
2019-06-09 01:00:00 22.4 10 Oeste 24 Oeste 0 951.2 1 44
2019-06-09 00:00:00 23.3 12 Oeste 31 Oeste 0 951.5 1.8 37
2019-06-08 23:00:00 24 5 Oeste 28 Oeste 0 951.2 2 31
2019-06-08 22:00:00 24.2 15 Oeste 37 Oeste 0 950.2 1.2 32
2019-06-08 21:00:00 24.9 18 Oeste 41 Noroeste 0 949.7 0.6 33
2019-06-08 20:00:00 26.4 22 Noroeste 39 Noroeste 0 949.2 -0.3 30
2019-06-08 19:00:00 29.1 22 Noroeste 39 Noroeste 0 949 -0.9 26
2019-06-08 18:00:00 30.4 10 Noroeste 26 Norte 0 949.1 -1.1 24
2019-06-08 17:00:00 30.2 13 Noroeste 27 Noroeste 0 949.5 -1.3 21
2019-06-08 16:00:00 28.8 14 Noroeste 29 Noroeste 0 949.9 -1.2 23
2019-06-08 15:00:00 28.5 14 Norte 23 Noroeste 0 950.2 -1.1 23
2019-06-08 14:00:00 28.3 6 Norte 18 Norte 0 950.8 -0.8 22
2019-06-08 13:00:00 26.9 5 Este 12 Nordeste 0 951.1 -0.4 22
2019-06-08 12:00:00 25.5 5 Nordeste 12 Norte 0 951.3 0.3 24
2019-06-08 11:00:00 23.4 6 Nordeste 10 Nordeste 0 951.6 0.7 28
2019-06-08 10:00:00 21.6 5 Nordeste 16 Sudeste 0 951.5 0.8 32
2019-06-08 09:00:00 20.9 10 Sudeste 17 Sudeste 0 951 0.2 34
2019-06-08 08:00:00 17.8 7 Este 16 Este 0 950.9 0.1 32
2019-06-08 07:00:00 14.4 0 Calma 8 Sur 0 950.7 -0.3 33
2019-06-08 06:00:00 14.3 3 Sudoeste 6 Sudoeste 0 950.8 -0.5 32
2019-06-08 05:00:00 14.8 3 Sudoeste 7 Sur 0 950.8 -0.6 31
2019-06-08 04:00:00 15.9 4 Sudoeste 8 Sudoeste 0 951 -0.6 29
2019-06-08 03:00:00 16.3 5 Sudoeste 11 Oeste 0 951.3 -0.3 29
2019-06-08 02:00:00 17.7 6 Oeste 14 Oeste 0 951.4 0.1 25
2019-06-08 01:00:00 18.2 8 Oeste 13 Oeste 0 951.6 0.8 24
2019-06-08 00:00:00 18.9 7 Oeste 13 Sudoeste 0 951.6 1.2 23
2019-06-07 23:00:00 19.6 9 Sudoeste 12 Sudoeste 0 951.3 1.2 21
2019-06-07 22:00:00 20.4 8 Sudoeste 12 Oeste 0 950.8 0.9 21
2019-06-07 21:00:00 23.1 8 Oeste 15 Noroeste 0 950.4 0.5 19
2019-06-07 20:00:00 24.7 8 Noroeste 18 Noroeste 0 950.1 0.1 20
2019-06-07 19:00:00 24.7 10 Noroeste 25 Norte 0 949.9 -0.1 24
2019-06-07 18:00:00 24.4 13 Norte 30 Noroeste 0 949.9 -0.1 26
2019-06-07 17:00:00 23.9 19 Noroeste 32 Norte 0 950 -0.5 30
2019-06-07 16:00:00 23.3 19 Noroeste 36 Norte 0 950 -0.8 36
2019-06-07 15:00:00 22.5 18 Noroeste 32 Norte 0 950 -0.7 42
2019-06-07 14:00:00 21.1 9 Norte 21 Noroeste 0 950.5 0 52
2019-06-07 13:00:00 18.5 8 Noroeste 17 Norte 0 950.8 1 61
2019-06-07 12:00:00 16.8 12 Noroeste 32 Noroeste 0 950.7 1.2 67
2019-06-07 11:00:00 14 17 Oeste 35 Noroeste 0 950.5 1.8 80
2019-06-07 10:00:00 15.7 15 Noroeste 23 Noroeste 0 949.8 1.8 74
2019-06-07 09:00:00 15.8 9 Oeste 21 Oeste 0 949.5 1.9 70
2019-06-07 08:00:00 15.4 5 Noroeste 15 Oeste 0 948.7 1.4 66
2019-06-07 07:00:00 14.6 5 Sudeste 9 Sur 0 948 1.1 59
2019-06-07 06:00:00 14.6 4 Noroeste 15 Sudoeste 0 947.6 0.8 59
2019-06-07 05:00:00 16 4 Este 31 Sur 0 947.3 0.4 55
2019-06-07 04:00:00 16.2 9 Sudoeste 32 Oeste 0 946.9 0.3 52
2019-06-07 03:00:00 16.6 16 Oeste 36 Oeste 0 946.8 0.5 50
2019-06-07 02:00:00 16.8 9 Sudoeste 29 Sudoeste 0 946.9 1.1 23
2019-06-07 01:00:00 17.9 12 Oeste 30 Sudoeste 0 946.6 1.5 19
2019-06-07 00:00:00 18.5 11 Sudoeste 27 Sudoeste 0 946.3 1.8 21
2019-06-06 23:00:00 19.5 16 Oeste 37 Oeste 0 945.8 1.7 17
2019-06-06 22:00:00 20.5 19 Oeste 39 Oeste 0 945.1 1.3 28
2019-06-06 21:00:00 22.8 19 Oeste 36 Noroeste 0 944.5 0.6 25
2019-06-06 20:00:00 24.9 17 Oeste 42 Oeste 0 944.1 -0.3 22
2019-06-06 19:00:00 25.9 20 Oeste 45 Noroeste 0 943.8 -0.8 21
2019-06-06 18:00:00 26 21 Noroeste 45 Noroeste 0 943.9 -1.6 20
2019-06-06 17:00:00 26.8 18 Noroeste 46 Noroeste 0 944.4 -1.8 19
2019-06-06 16:00:00 26 27 Noroeste 48 Norte 0 944.6 -2.2 22
2019-06-06 15:00:00 25.6 12 Norte 27 Noroeste 0 945.5 -1.6 24
2019-06-06 14:00:00 24.3 13 Noroeste 23 Noroeste 0 946.2 -1.5 27
2019-06-06 13:00:00 22.9 8 Norte 20 Norte 0 946.8 -1.2 28
2019-06-06 12:00:00 21.6 5 Noroeste 17 Norte 0 947.1 -1 30
2019-06-06 11:00:00 19.9 6 Norte 12 Noroeste 0 947.7 -0.5 33
2019-06-06 10:00:00 18.2 6 Este 12 Nordeste 0 948 0 37
2019-06-06 09:00:00 16.1 3 Nordeste 8 Este 0 948.1 0.2 42
2019-06-06 08:00:00 14.4 2 Nordeste 6 Sur 0 948.2 0.4 46
2019-06-06 07:00:00 13.3 2 Sudeste 12 Sudoeste 0 948 0.1 46
2019-06-06 06:00:00 13.5 5 Sudoeste 10 Sudoeste 0 947.9 -0.2 45
2019-06-06 05:00:00 14.1 2 Sudoeste 9 Oeste 0 947.8 -0.5 40
2019-06-06 04:00:00 15.4 8 Sudoeste 12 Oeste 0 947.9 -0.5 36
2019-06-06 03:00:00 15.9 8 Sudoeste 16 Oeste 0 948.1 -0.6 35
2019-06-06 02:00:00 16.6 9 Oeste 20 Oeste 0 948.3 -0.2 33
2019-06-06 01:00:00 17.3 10 Oeste 14 Oeste 0 948.4 0.8 32
2019-06-06 00:00:00 17.2 8 Sudoeste 13 Oeste 0 948.7 1.2 33
2019-06-05 23:00:00 18 7 Sudoeste 15 Oeste 0 948.5 1.3 31
2019-06-05 22:00:00 18.9 7 Sudoeste 17 Noroeste 0 947.6 0.4 28
2019-06-05 21:00:00 20.8 10 Noroeste 20 Norte 0 947.5 0.3 25
2019-06-05 20:00:00 21.7 13 Noroeste 26 Noroeste 0 947.2 -0.2 25
2019-06-05 19:00:00 21.6 14 Oeste 29 Noroeste 0 947.2 -0.6 25
2019-06-05 18:00:00 21.7 18 Noroeste 34 Noroeste 0 947.2 -1.1 24
2019-06-05 17:00:00 22 12 Oeste 37 Noroeste 0 947.4 -1.3 26
2019-06-05 16:00:00 21 14 Oeste 33 Noroeste 0 947.8 -0.9 28
2019-06-05 15:00:00 20.7 17 Noroeste 40 Noroeste 0 948.3 -0.4 31
2019-06-05 14:00:00 19.9 15 Noroeste 33 Noroeste 0 948.7 0.6 33
2019-06-05 13:00:00 18.4 19 Noroeste 38 Noroeste 0 948.7 0.4 38
2019-06-05 12:00:00 17.4 22 Noroeste 40 Noroeste 0 948.7 0.8 40
2019-06-05 11:00:00 16.7 21 Noroeste 39 Noroeste 0 948.1 0.6 41
2019-06-05 10:00:00 15.3 16 Noroeste 32 Noroeste 0 948.3 1.7 49
2019-06-05 09:00:00 14.6 13 Noroeste 31 Oeste 0 947.9 2.2 47
2019-06-05 08:00:00 14.4 14 Noroeste 32 Noroeste 0 947.5 2.3 46
2019-06-05 07:00:00 14.7 15 Noroeste 42 Noroeste 0 946.6 1.3 49
2019-06-05 06:00:00 16.5 22 Noroeste 37 Noroeste 0 945.7 0.3 60
2019-06-05 05:00:00 17.2 17 Noroeste 35 Noroeste 0 945.2 -0.4 61
2019-06-05 04:00:00 18.2 9 Oeste 29 Oeste 0 945.3 0.1 68
2019-06-05 03:00:00 18.7 18 Oeste 33 Oeste 0 945.4 0.5 68
2019-06-05 02:00:00 19.2 19 Oeste 38 Oeste 0 945.6 1.2 66
2019-06-05 01:00:00 20.1 24 Oeste 51 Oeste 0 945.2 1.3 60
2019-06-05 00:00:00 21.5 19 Oeste 37 Oeste 0 944.9 1.3 48
2019-06-04 23:00:00 22.9 11 Sudoeste 26 Sudoeste 0 944.4 0.8 42
2019-06-04 22:00:00 24.3 10 Sudoeste 31 Oeste 0 943.9 0.1 38
2019-06-04 21:00:00 26.5 15 Oeste 35 Oeste 0 943.6 -0.5 33
2019-06-04 20:00:00 28.4 15 Oeste 39 Noroeste 0 943.6 -0.8 30
2019-06-04 19:00:00 29 19 Noroeste 47 Noroeste 0 943.8 -1.5 26
2019-06-04 18:00:00 30.4 17 Oeste 44 Noroeste 0 944.1 -1.7 23
2019-06-04 17:00:00 30.4 18 Noroeste 44 Noroeste 0 944.4 -2.2 23
2019-06-04 16:00:00 31.2 13 Oeste 45 Oeste 0 945.3 -1.7 17
2019-06-04 15:00:00 30.4 18 Noroeste 42 Noroeste 0 945.8 -1.7 18
2019-06-04 14:00:00 29.4 20 Noroeste 35 Noroeste 0 946.6 -1.2 20
2019-06-04 13:00:00 28.9 20 Noroeste 39 Noroeste 0 947 -0.9 20
2019-06-04 12:00:00 27.5 11 Norte 18 Norte 0 947.5 -0.6 26
2019-06-04 11:00:00 24.4 7 Noroeste 13 Norte 0 947.8 0.2 31
2019-06-04 10:00:00 22.5 5 Nordeste 11 Nordeste 0 947.9 0.3 35
2019-06-04 09:00:00 20.7 5 Este 9 Este 0 948.1 0.6 37
2019-06-04 08:00:00 18.8 3 Norte 6 Sur 0 947.6 -0.3 42
2019-06-04 07:00:00 18.5 2 Sudoeste 5 Sur 0 947.6 -0.7 36
2019-06-04 06:00:00 19.3 3 Sudoeste 9 Sudoeste 0 947.5 -1 32
2019-06-04 05:00:00 19.5 6 Sur 9 Sudoeste 0 947.9 -0.7 35
2019-06-04 04:00:00 20.8 3 Sur 13 Sudeste 0 948.3 -0.7 31
2019-06-04 03:00:00 22.6 7 Sur 11 Sur 0 948.5 -0.4 26
2019-06-04 02:00:00 24.8 5 Sudoeste 24 Oeste 0 948.6 0.1 24
2019-06-04 01:00:00 25.2 15 Oeste 24 Sudoeste 0 949 1 22
2019-06-04 00:00:00 27.2 12 Oeste 28 Oeste 0 948.9 1 19
2019-06-03 23:00:00 28.2 10 Oeste 27 Oeste 0 948.5 0.8 14
2019-06-03 22:00:00 29.1 11 Oeste 26 Oeste 0 948 0.3 13
2019-06-03 21:00:00 30.8 11 Oeste 30 Oeste 0 947.9 -0.1 13
2019-06-03 20:00:00 32.8 13 Noroeste 33 Noroeste 0 947.7 -0.8 14
2019-06-03 19:00:00 33.6 17 Noroeste 30 Noroeste 0 947.7 -1.4 15
2019-06-03 18:00:00 34.6 12 Noroeste 33 Noroeste 0 948 -1.9 13
2019-06-03 17:00:00 34.8 9 Noroeste 23 Norte 0 948.5 -2.1 13
2019-06-03 16:00:00 34 11 Noroeste 21 Noroeste 0 949.1 -2.2 14
2019-06-03 15:00:00 33.5 7 Nordeste 18 Norte 0 949.9 -1.6 14
2019-06-03 14:00:00 31.9 6 Nordeste 13 Nordeste 0 950.6 -1.2 16
2019-06-03 13:00:00 30 5 Nordeste 12 Nordeste 0 951.3 -0.7 19
2019-06-03 12:00:00 28.1 5 Este 12 Sudeste 0 951.5 -0.3 21
2019-06-03 11:00:00 25.8 4 Nordeste 10 Norte 0 951.8 0.2 24
2019-06-03 10:00:00 23.7 4 Este 10 Este 0 952 0.6 26
2019-06-03 09:00:00 22.3 4 Este 10 Este 0 951.8 0.5 26
2019-06-03 08:00:00 19.9 3 Este 8 Sur 0 951.6 0.3 35
2019-06-03 07:00:00 18.6 4 Sudoeste 7 Sur 0 951.4 0 35
2019-06-03 06:00:00 19.5 3 Sudeste 6 Sur 0 951.3 0 34
2019-06-03 05:00:00 20 4 Sudoeste 7 Sudoeste 0 951.3 -0.3 33
2019-06-03 04:00:00 21.1 5 Sudoeste 7 Sudeste 0 951.4 0.1 31
2019-06-03 03:00:00 22.7 4 Sudoeste 16 Oeste 0 951.3 0.1 27
2019-06-03 02:00:00 24.8 11 Oeste 22 Noroeste 0 951.6 0.9 24
2019-06-03 01:00:00 25.3 11 Sur 18 Sudoeste 0 951.3 1.7 24
2019-06-03 00:00:00 26.4 4 Sur 21 Sudoeste 0 951.2 2 21
2019-06-02 23:00:00 28.1 12 Sudoeste 28 Sudoeste 0 950.7 1.7 19
2019-06-02 22:00:00 27.5 9 Sudoeste 10 Sudoeste 0 949.6 0.5 19
2019-06-02 21:00:00 31.4 4 Oeste 12 Norte 0 949.2 -0.4 16
2019-06-02 20:00:00 33.5 4 Noroeste 15 Norte 0 949 -0.9 14
2019-06-02 19:00:00 33.5 5 Nordeste 13 Este 0 949.1 -1.2 14
2019-06-02 18:00:00 33.7 6 Norte 21 Noroeste 0 949.6 -1.4 14
2019-06-02 17:00:00 33.3 9 Norte 21 Noroeste 0 949.9 -2 15
2019-06-02 16:00:00 33 11 Norte 27 Norte 0 950.3 -2.2 16
2019-06-02 15:00:00 31.8 8 Norte 17 Noroeste 0 951 -1.8 16
2019-06-02 14:00:00 30.1 7 Norte 16 Norte 0 951.9 -1 19
2019-06-02 13:00:00 28.3 6 Nordeste 14 Norte 0 952.5 -0.4 22
2019-06-02 12:00:00 26.6 6 Norte 13 Norte 0 952.8 0.2 25
2019-06-02 11:00:00 24.5 5 Norte 12 Norte 0 952.9 0.4 29
2019-06-02 10:00:00 21.9 7 Norte 14 Norte 0 952.9 0.6 33
2019-06-02 09:00:00 20.5 5 Norte 10 Noroeste 0 952.6 0.7 34
2019-06-02 08:00:00 19.1 4 Oeste 9 Oeste 0 952.5 0.5 38
2019-06-02 07:00:00 17.7 4 Sudoeste 9 Sudoeste 0 952.3 0.3 40
2019-06-02 06:00:00 18.5 8 Sudoeste 11 Sudoeste 0 951.9 -0.4 38
2019-06-02 05:00:00 19.5 0 Calma 13 Este 0 952 -0.3 36
2019-06-02 04:00:00 22.9 12 Sudeste 31 Sudeste 0 952 -0.4 30
2019-06-02 03:00:00 23.6 16 Sudeste 27 Sudeste 0 952.3 -0.1 27
2019-06-02 02:00:00 23.9 13 Sudeste 37 Este 0 952.3 0.4 23
2019-06-02 01:00:00 24.7 16 Sudeste 26 Sudeste 0 952.4 2 21
2019-06-02 00:00:00 25.5 13 Sur 27 Sudeste 0 952.4 2.5 21
2019-06-01 23:00:00 25.2 6 Sur 26 Sur 0 951.9 2.1 22
2019-06-01 22:00:00 28.1 14 Sudeste 29 Sudeste 0 950.4 0.6 17
2019-06-01 21:00:00 30 6 Este 14 Este 0 949.9 -0.3 15
2019-06-01 20:00:00 31.6 8 Este 22 Este 0 949.8 -0.9 13
2019-06-01 19:00:00 32.7 7 Este 22 Norte 0 949.8 -1.5 12
2019-06-01 18:00:00 33 10 Nordeste 26 Nordeste 0 950.2 -1.6 12
2019-06-01 17:00:00 33.2 6 Norte 31 Noroeste 0 950.7 -1.8 14
2019-06-01 16:00:00 33 8 Norte 22 Norte 0 951.3 -1.8 14
2019-06-01 15:00:00 32.1 7 Este 25 Nordeste 0 951.8 -1.9 14
2019-06-01 14:00:00 31.5 10 Norte 19 Norte 0 952.5 -1.1 17
2019-06-01 13:00:00 29.6 7 Este 15 Este 0 953.1 -0.5 23
2019-06-01 12:00:00 27.3 4 Nordeste 13 Sudeste 0 953.7 0.4 26
2019-06-01 11:00:00 25.7 6 Nordeste 10 Nordeste 0 953.6 0.6 30
2019-06-01 10:00:00 23.2 3 Este 10 Este 0 953.6 0.8 35
2019-06-01 09:00:00 23.2 6 Este 27 Sudeste 0 953.3 0.4 34
2019-06-01 08:00:00 22.8 18 Sudeste 35 Sudeste 0 953 0.1 30
2019-06-01 07:00:00 21.6 14 Sudeste 26 Sudeste 0 952.8 -0.3 32
2019-06-01 06:00:00 21.7 13 Sudeste 29 Sudeste 0 952.9 -0.2 32
2019-06-01 05:00:00 22.3 20 Sudeste 37 Sudeste 0 952.9 -0.7 30
2019-06-01 04:00:00 22.2 18 Sudeste 37 Sudeste 0 953.1 -0.8 29
2019-06-01 03:00:00 22.8 18 Sur 33 Sudeste 0 953.1 -0.6 28
2019-06-01 02:00:00 23.2 11 Sur 23 Sur 0 953.6 0.7 26
2019-06-01 01:00:00 23.8 8 Sur 31 Sur 0 953.9 1.8 25
2019-06-01 00:00:00 24.1 9 Sur 45 Este 0 953.7 2 26
2019-05-31 23:00:00 25.3 25 Sudeste 46 Sudeste 0 952.9 1.5 26
2019-05-31 22:00:00 26.5 15 Sudeste 41 Sudeste 0 952.1 0.9 23
2019-05-31 21:00:00 28.3 22 Sudeste 35 Sudeste 0 951.7 -0.1 19
2019-05-31 20:00:00 30.4 12 Sudeste 24 Este 0 951.4 -0.7 13
2019-05-31 19:00:00 32 12 Norte 30 Nordeste 0 951.2 -1.5 13
2019-05-31 18:00:00 32.3 13 Norte 31 Norte 0 951.8 -1.2 13
2019-05-31 17:00:00 32.9 8 Norte 22 Noroeste 0 952.1 -1.6 13
2019-05-31 16:00:00 32 5 Noroeste 20 Nordeste 0 952.7 -1.4 14
2019-05-31 15:00:00 31.1 8 Nordeste 23 Este 0 953 -1.3 15
2019-05-31 14:00:00 29.7 10 Este 28 Este 0 953.7 -0.8 17
2019-05-31 13:00:00 28.6 14 Este 28 Sudeste 0 954.1 -0.4 17
2019-05-31 12:00:00 27.6 10 Sudeste 35 Sudeste 0 954.3 0 19
2019-05-31 11:00:00 25.5 21 Sudeste 40 Este 0 954.5 0.3 22
2019-05-31 10:00:00 24.5 21 Sudeste 36 Sudeste 0 954.5 0.2 23
2019-05-31 09:00:00 22.8 23 Sudeste 47 Sudeste 0 954.3 0.1 25
2019-05-31 08:00:00 21.8 22 Sudeste 42 Sudeste 0 954.2 0.1 27
2019-05-31 07:00:00 20.3 11 Sudeste 30 Sudeste 0 954.3 -0.3 31
2019-05-31 06:00:00 20.7 15 Sudeste 39 Sudeste 0 954.2 -0.8 31
2019-05-31 05:00:00 20.9 22 Sudeste 47 Sudeste 0 954.1 -1.3 30
2019-05-31 04:00:00 21.1 19 Sudeste 31 Sudeste 0 954.6 -1 31
2019-05-31 03:00:00 21.9 19 Sudeste 51 Sudeste 0 955 -0.4 28
2019-05-31 02:00:00 22.3 16 Sudeste 39 Sudeste 0 955.4 0.8 27
2019-05-31 01:00:00 22.9 18 Sudeste 51 Sudeste 0 955.6 2.1 29
2019-05-31 00:00:00 23.5 36 Sudeste 59 Sudeste 0 955.4 2.4 30
2019-05-30 23:00:00 24.7 29 Sudeste 41 Sudeste 0 954.6 2 27
2019-05-30 22:00:00 25.9 13 Sudeste 31 Sudeste 0 953.5 0.8 25
2019-05-30 21:00:00 27.4 16 Sudeste 26 Sudeste 0 953 -0.1 21
2019-05-30 20:00:00 29.3 8 Sudeste 17 Este 0 952.6 -1 17
2019-05-30 19:00:00 30.8 9 Norte 24 Nordeste 0 952.7 -1.1 16
2019-05-30 18:00:00 30.7 8 Este 23 Noroeste 0 953.1 -1.2 15
2019-05-30 17:00:00 30.2 9 Noroeste 24 Noroeste 0 953.6 -1.2 15
2019-05-30 16:00:00 30.6 7 Nordeste 22 Sudeste 0 953.8 -1.6 16
2019-05-30 15:00:00 29.3 5 Este 19 Norte 0 954.3 -1.1 20
2019-05-30 14:00:00 28.2 8 Nordeste 20 Nordeste 0 954.8 -0.7 22
2019-05-30 13:00:00 26.6 7 Nordeste 20 Este 0 955.4 0 24
2019-05-30 12:00:00 25.4 10 Este 25 Este 0 955.4 0.5 25
2019-05-30 11:00:00 23.5 10 Sudeste 30 Sudeste 0 955.5 1 31
2019-05-30 10:00:00 22 17 Sudeste 37 Sur 0 955.4 1.4 35
2019-05-30 09:00:00 20.6 18 Sur 37 Sur 0 954.9 1.3 38
2019-05-30 08:00:00 19.3 22 Sur 33 Sur 0 954.5 1.3 41
2019-05-30 07:00:00 18.5 15 Sur 28 Sur 0 954 0.4 43
2019-05-30 06:00:00 18.3 5 Norte 25 Sur 0 953.6 -0.2 43
2019-05-30 05:00:00 21.1 22 Sur 32 Sur 0 953.2 -1 35
2019-05-30 04:00:00 20.5 15 Sur 22 Sur 0 953.6 -0.8 37
2019-05-30 03:00:00 20.6 17 Sur 24 Sur 0 953.8 -0.3 39
2019-05-30 02:00:00 20.9 4 Sur 8 Este 0 954.2 0.7 30
2019-05-30 01:00:00 22 4 Sudeste 14 Sudeste 0 954.4 1.8 28
2019-05-30 00:00:00 22.6 3 Sudeste 10 Este 0 954.1 2.1 25
2019-05-29 23:00:00 23.6 3 Sudeste 9 Este 0 953.5 2 22
2019-05-29 22:00:00 25.1 4 Este 17 Este 0 952.6 1.1 18
2019-05-29 21:00:00 26.7 5 Nordeste 20 Este 0 952 0.4 16
2019-05-29 20:00:00 28 7 Este 23 Este 0 951.5 -0.3 16
2019-05-29 19:00:00 28.6 6 Nordeste 23 Norte 0 951.5 -0.5 16
2019-05-29 18:00:00 29.1 9 Nordeste 30 Nordeste 0 951.6 -0.6 16
2019-05-29 17:00:00 29 9 Nordeste 25 Sudeste 0 951.8 -0.7 16
2019-05-29 16:00:00 29.1 12 Norte 26 Nordeste 0 952 -1 17
2019-05-29 15:00:00 28.4 11 Norte 24 Norte 0 952.2 -0.7 19
2019-05-29 14:00:00 27.3 7 Este 22 Nordeste 0 952.5 -0.5 21
2019-05-29 13:00:00 26.1 8 Nordeste 22 Nordeste 0 953 0.1 25
2019-05-29 12:00:00 24.9 7 Nordeste 20 Este 0 952.9 0.4 26
2019-05-29 11:00:00 23.2 5 Nordeste 18 Este 0 953 1 28
2019-05-29 10:00:00 22 10 Sudeste 19 Este 0 952.9 1.5 30
2019-05-29 09:00:00 20.4 6 Este 11 Este 0 952.5 1.5 33
2019-05-29 08:00:00 19.4 6 Este 17 Este 0 952 1.2 34
2019-05-29 07:00:00 16.9 7 Sur 11 Sur 0 951.4 0.6 40
2019-05-29 06:00:00 16.6 5 Sur 10 Sudoeste 0 951 0.6 41
2019-05-29 05:00:00 17.9 4 Oeste 11 Sudoeste 0 950.8 1.1 37
2019-05-29 04:00:00 19.9 4 Norte 18 Norte 0 950.8 1.4 31
2019-05-29 03:00:00 21.4 3 Sudeste 13 Norte 0 950.4 1.4 24
2019-05-29 02:00:00 23.4 5 Sudeste 18 Sudeste 0 949.7 1.1 21
2019-05-29 01:00:00 24.1 7 Sur 18 Sudeste 0 949.4 2.3 21
2019-05-29 00:00:00 24.8 4 Sudeste 17 Nordeste 0 949 2.6 24
2019-05-28 23:00:00 26.3 4 Nordeste 24 Norte 0 948.6 2.6 23
2019-05-28 22:00:00 27.4 3 Oeste 10 Norte 0 947.1 1.3 26
2019-05-28 21:00:00 29.9 6 Norte 16 Norte 0 946.4 0.5 22
2019-05-28 20:00:00 31.6 9 Norte 22 Norte 0 946 0.1 20
2019-05-28 19:00:00 32.2 6 Noroeste 20 Norte 0 945.8 -0.4 20
2019-05-28 18:00:00 32.1 10 Noroeste 27 Norte 0 945.9 -0.5 19
2019-05-28 17:00:00 32.1 9 Norte 27 Noroeste 0 945.9 -0.7 19
2019-05-28 16:00:00 31.7 8 Norte 28 Nordeste 0 946.2 -0.7 20
2019-05-28 15:00:00 31.2 10 Norte 26 Norte 0 946.4 -0.6 23
2019-05-28 14:00:00 30.2 10 Norte 23 Norte 0 946.6 -0.3 26
2019-05-28 13:00:00 29.3 6 Norte 19 Noroeste 0 946.9 0.2 29
2019-05-28 12:00:00 27.6 4 Este 11 Noroeste 0 947 0.6 32
2019-05-28 11:00:00 25.3 4 Este 10 Norte 0 946.9 0.9 35
2019-05-28 10:00:00 23.3 4 Nordeste 9 Este 0 946.7 1.2 40
2019-05-28 09:00:00 21.1 4 Norte 9 Este 0 946.4 1.2 45
2019-05-28 08:00:00 19.4 0 Calma 5 Sur 0 946 1 48
2019-05-28 07:00:00 19 2 Sudeste 10 Oeste 0 945.5 0.3 47
2019-05-28 06:00:00 20.2 4 Noroeste 7 Sur 0 945.2 0.2 44
2019-05-28 05:00:00 21.3 4 Sur 13 Oeste 0 945 -0.1 40
2019-05-28 04:00:00 23.9 4 Nordeste 34 Oeste 0 945.2 -0.2 34
2019-05-28 03:00:00 24.6 14 Oeste 35 Oeste 0 945 -0.7 34
2019-05-28 02:00:00 25.2 19 Oeste 42 Oeste 0 945.1 -0.3 31
2019-05-28 01:00:00 25.4 18 Oeste 44 Oeste 0 945.4 0.7 31
2019-05-28 00:00:00 26.1 21 Oeste 39 Oeste 0 945.7 1.1 31
2019-05-27 23:00:00 27.3 15 Oeste 31 Oeste 0 945.4 1.1 27
2019-05-27 22:00:00 27.7 8 Sudoeste 17 Sudoeste 0 944.7 0.2 24
2019-05-27 21:00:00 29 8 Oeste 26 Noroeste 0 944.6 -0.1 23
2019-05-27 20:00:00 30.7 9 Noroeste 27 Oeste 0 944.3 -0.9 21
2019-05-27 19:00:00 30.5 11 Noroeste 30 Noroeste 0 944.5 -1.5 20
2019-05-27 18:00:00 31.1 10 Oeste 33 Noroeste 0 944.7 -1.9 20
2019-05-27 17:00:00 31.3 9 Noroeste 25 Noroeste 0 945.2 -2.1 20
2019-05-27 16:00:00 30.5 7 Noroeste 20 Noroeste 0 946 -2 21
2019-05-27 15:00:00 29.5 7 Noroeste 26 Noroeste 0 946.6 -1.6 23
2019-05-27 14:00:00 29.1 4 Sudeste 17 Noroeste 0 947.3 -1.5 22
2019-05-27 13:00:00 27.5 6 Norte 14 Norte 0 948 -0.7 23
2019-05-27 12:00:00 25.3 7 Este 14 Sudeste 0 948.2 -0.1 26
2019-05-27 11:00:00 23.3 7 Norte 12 Este 0 948.8 0.9 33
2019-05-27 10:00:00 20.6 4 Este 9 Norte 0 948.7 1.1 40
2019-05-27 09:00:00 19.2 4 Nordeste 7 Nordeste 0 948.3 0.6 42
2019-05-27 08:00:00 17.7 2 Noroeste 8 Sudoeste 0 947.9 -0.1 40
2019-05-27 07:00:00 16.6 5 Sudoeste 8 Sudoeste 0 947.6 -0.3 38
2019-05-27 06:00:00 17 5 Sur 13 Sur 0 947.7 -0.3 35
2019-05-27 05:00:00 17.4 3 Sudeste 11 Oeste 0 948 -0.3 33
2019-05-27 04:00:00 19.9 9 Oeste 17 Oeste 0 947.9 -0.9 28
2019-05-27 03:00:00 19.9 5 Sudoeste 9 Sur 0 948 -1 28
2019-05-27 02:00:00 21 7 Sur 11 Sur 0 948.3 -0.7 25
2019-05-27 01:00:00 21.5 6 Sur 13 Sur 0 948.8 0.5 23
2019-05-27 00:00:00 22.2 7 Sur 13 Sur 0 949 1 22
2019-05-26 23:00:00 21.8 6 Sur 10 Sur 0 949 1.1 23
2019-05-26 22:00:00 22.8 4 Sudoeste 7 Sur 0 948.3 0.3 21
2019-05-26 21:00:00 25.8 4 Norte 16 Norte 0 948 -0.2 17
2019-05-26 20:00:00 27.8 9 Norte 22 Norte 0 947.9 -0.6 15
2019-05-26 19:00:00 28 13 Norte 30 Norte 0 948 -1 15
2019-05-26 18:00:00 27.7 9 Nordeste 28 Norte 0 948.2 -1.4 14
2019-05-26 17:00:00 27.4 10 Noroeste 27 Noroeste 0 948.5 -1.5 24
2019-05-26 16:00:00 27.1 6 Norte 24 Norte 0 949 -1.4 24
2019-05-26 15:00:00 26.6 12 Norte 33 Norte 0 949.6 -1 26
2019-05-26 14:00:00 25.5 10 Norte 22 Nordeste 0 950 -1 32
2019-05-26 13:00:00 24.6 11 Norte 21 Noroeste 0 950.4 -0.9 35
2019-05-26 12:00:00 23.5 7 Norte 17 Norte 0 950.6 -0.5 37
2019-05-26 11:00:00 21.1 6 Norte 18 Noroeste 0 951 0.3 46
2019-05-26 10:00:00 19.3 10 Noroeste 22 Noroeste 0 951.3 0.9 51
2019-05-26 09:00:00 18.4 6 Norte 15 Norte 0 951.1 1 51
2019-05-26 08:00:00 17.2 3 Noroeste 8 Sur 0 950.7 0.5 51
2019-05-26 07:00:00 15.6 5 Sur 8 Oeste 0 950.4 0.7 50
2019-05-26 06:00:00 17.7 6 Sur 19 Oeste 0 950.1 0 43
2019-05-26 05:00:00 18.6 15 Oeste 24 Oeste 0 950.2 -0.3 37
2019-05-26 04:00:00 19.4 14 Sur 19 Sur 0 949.7 -1.2 38
2019-05-26 03:00:00 19.4 13 Sur 18 Sur 0 950.1 -0.7 36
2019-05-26 02:00:00 19 3 Sudoeste 9 Oeste 0 950.5 0.2 38
2019-05-26 01:00:00 20.4 5 Sudoeste 11 Sudoeste 0 950.9 1.4 32
2019-05-26 00:00:00 20.8 5 Oeste 12 Oeste 0 950.8 1.7 31
2019-05-25 23:00:00 21.9 7 Oeste 14 Noroeste 0 950.3 1.6 30
2019-05-25 22:00:00 22.2 6 Oeste 13 Norte 0 949.5 0.8 31
2019-05-25 21:00:00 24.3 7 Norte 24 Noroeste 0 949.1 0.3 27
2019-05-25 20:00:00 25.5 5 Nordeste 31 Norte 0 948.7 -0.1 26
2019-05-25 19:00:00 26.1 9 Norte 24 Norte 0 948.7 -0.5 26
2019-05-25 18:00:00 25.8 13 Norte 25 Nordeste 0 948.8 -0.9 27
2019-05-25 17:00:00 25.5 10 Nordeste 24 Norte 0 948.8 -1.3 28
2019-05-25 16:00:00 24.8 9 Este 25 Nordeste 0 949.2 -1.1 32
2019-05-25 15:00:00 24.2 9 Norte 28 Norte 0 949.7 -0.7 33
2019-05-25 14:00:00 23 8 Este 21 Nordeste 0 950.1 -0.3 35
2019-05-25 13:00:00 22.1 7 Nordeste 23 Nordeste 0 950.3 0.2 38
2019-05-25 12:00:00 21 6 Nordeste 24 Norte 0 950.4 0.6 41
2019-05-25 11:00:00 19 7 Norte 23 Norte 0 950.4 1.4 50
2019-05-25 10:00:00 16.9 6 Norte 17 Norte 0 950.1 1.6 57
2019-05-25 09:00:00 15.8 6 Norte 14 Norte 0 949.8 1.8 56
2019-05-25 08:00:00 14.5 3 Oeste 6 Noroeste 0 949 1.2 64
2019-05-25 07:00:00 13.2 4 Sudoeste 7 Noroeste 0 948.5 0.8 72
2019-05-25 06:00:00 13.9 3 Sudoeste 7 Sudoeste 0 948 0.5 69
2019-05-25 05:00:00 14.3 3 Noroeste 8 Oeste 0 947.8 0.3 68
2019-05-25 04:00:00 15 5 Oeste 9 Sudoeste 0 947.7 0.2 66
2019-05-25 03:00:00 16.7 3 Oeste 6 Oeste 0 947.5 0.1 59
2019-05-25 02:00:00 18.4 2 Norte 10 Sur 0 947.5 0.5 53
2019-05-25 01:00:00 19.5 4 Sur 10 Este 0 947.5 1.4 48
2019-05-25 00:00:00 20.8 6 Este 22 Este 0 947.4 2.9 43
2019-05-24 23:00:00 21.9 11 Este 21 Este 0 947 2.7 43
2019-05-24 22:00:00 23.1 11 Este 34 Nordeste 0 946.1 1.7 40
2019-05-24 21:00:00 25.3 5 Oeste 11 Oeste 0 944.5 -0.3 30
2019-05-24 20:00:00 27.1 3 Oeste 18 Noroeste 0 944.3 -0.7 25
2019-05-24 19:00:00 27.2 7 Norte 19 Noroeste 0 944.4 -0.8 25
2019-05-24 18:00:00 27.1 8 Norte 27 Noroeste 0 944.8 -0.8 25
2019-05-24 17:00:00 26.3 12 Noroeste 27 Noroeste 0 945 -0.9 25
2019-05-24 16:00:00 26.2 10 Norte 27 Noroeste 0 945.2 -1.3 26
2019-05-24 15:00:00 25 13 Noroeste 31 Noroeste 0 945.6 -1.3 28
2019-05-24 14:00:00 25.2 15 Noroeste 30 Noroeste 0 945.9 -1.1 30
2019-05-24 13:00:00 24.5 12 Norte 23 Norte 0 946.5 -0.5 36
2019-05-24 12:00:00 23 6 Norte 12 Noroeste 0 946.9 0.2 38
2019-05-24 11:00:00 20.2 4 Este 12 Este 0 947 0.1 45
2019-05-24 10:00:00 18.8 4 Este 7 Norte 0 947 -0.2 47
2019-05-24 09:00:00 18.6 3 Sudeste 6 Oeste 0 946.7 -0.8 49
2019-05-24 08:00:00 18.5 7 Sudeste 10 Sur 0 946.9 -0.4 46
2019-05-24 07:00:00 16.9 3 Sudoeste 8 Sur 0 947.2 -0.7 50
2019-05-24 06:00:00 17.7 3 Noroeste 8 Oeste 0 947.5 -0.8 47
2019-05-24 05:00:00 19.1 6 Sur 12 Sur 0 947.3 -1.3 43
2019-05-24 04:00:00 19.7 3 Sur 9 Sur 0 947.9 -0.7 39
2019-05-24 03:00:00 21.7 3 Sudeste 28 Oeste 0 948.3 -0.3 37
2019-05-24 02:00:00 22.7 15 Oeste 44 Oeste 0 948.6 0.1 37
2019-05-24 01:00:00 23.7 22 Oeste 44 Oeste 0 948.6 0.4 36
2019-05-24 00:00:00 24.9 17 Oeste 35 Oeste 0 948.6 0.4 27
2019-05-23 23:00:00 25.1 17 Oeste 30 Oeste 0 948.5 0.5 25
2019-05-23 22:00:00 24.7 8 Oeste 17 Oeste 0 948.2 0.1 26
2019-05-23 21:00:00 26.4 12 Oeste 26 Oeste 0 948.2 -0.3 22
2019-05-23 20:00:00 28.4 15 Noroeste 30 Noroeste 0 948 -0.7 21
2019-05-23 19:00:00 29.7 13 Oeste 34 Noroeste 0 948.1 -1.4 21
2019-05-23 18:00:00 29.9 12 Noroeste 30 Noroeste 0 948.5 -1.6 23
2019-05-23 17:00:00 29.3 12 Noroeste 31 Noroeste 0 948.7 -2.1 23
2019-05-23 16:00:00 29.5 16 Noroeste 32 Noroeste 0 949.5 -1.6 24
2019-05-23 15:00:00 28.9 7 Nordeste 32 Norte 0 950.1 -1.4 26
2019-05-23 14:00:00 28.5 8 Nordeste 18 Noroeste 0 950.8 -0.9 27
2019-05-23 13:00:00 26.8 8 Norte 19 Norte 0 951.1 -0.8 30
2019-05-23 12:00:00 25.7 6 Norte 13 Norte 0 951.5 -0.2 33
2019-05-23 11:00:00 24 4 Norte 12 Nordeste 0 951.7 0.2 35
2019-05-23 10:00:00 22.1 5 Norte 9 Norte 0 951.9 0.6 40
2019-05-23 09:00:00 19.4 3 Este 6 Nordeste 0 951.7 0.5 48
2019-05-23 08:00:00 17.7 0 Calma 5 Sudoeste 0 951.5 0.6 50
2019-05-23 07:00:00 16.2 3 Sudoeste 7 Sudoeste 0 951.3 0.6 54
2019-05-23 06:00:00 16.8 5 Sudoeste 7 Sur 0 951.2 0.1 52
2019-05-23 05:00:00 18.1 4 Sudoeste 11 Oeste 0 950.9 0 48
2019-05-23 04:00:00 18.6 4 Oeste 10 Sudoeste 0 950.7 0 46
2019-05-23 03:00:00 19.9 3 Sur 13 Norte 0 951.1 0.5 42
2019-05-23 02:00:00 21.8 2 Norte 14 Sudoeste 0 950.9 0.5 37
2019-05-23 01:00:00 23.1 9 Oeste 21 Oeste 0 950.7 0.8 33
2019-05-23 00:00:00 23.3 12 Oeste 23 Sudoeste 0 950.6 1.2 35
2019-05-22 23:00:00 23.3 9 Sudoeste 20 Oeste 0 950.4 1.4 36
2019-05-22 22:00:00 23.5 10 Oeste 15 Oeste 0 949.9 1 30
2019-05-22 21:00:00 26.1 9 Noroeste 22 Noroeste 0 949.4 0.2 26
2019-05-22 20:00:00 27 8 Noroeste 21 Noroeste 0 949 -0.4 24
2019-05-22 19:00:00 28.8 7 Noroeste 21 Noroeste 0 948.9 -0.9 23
2019-05-22 18:00:00 28.3 13 Norte 27 Noroeste 0 949.2 -1 25
2019-05-22 17:00:00 26.7 9 Noroeste 19 Oeste 0 949.4 -1 27
2019-05-22 16:00:00 26.4 6 Oeste 22 Noroeste 0 949.8 -1 28
2019-05-22 15:00:00 26.8 12 Norte 20 Nordeste 0 950.2 -0.8 28
2019-05-22 14:00:00 27 6 Norte 17 Norte 0 950.4 -0.6 28
2019-05-22 13:00:00 25.5 5 Norte 17 Norte 0 950.8 -0.1 33
2019-05-22 12:00:00 23.7 7 Noroeste 14 Norte 0 951 0.4 39
2019-05-22 11:00:00 22 4 Este 12 Sudeste 0 951 0.6 43
2019-05-22 10:00:00 20 6 Este 15 Este 0 950.9 1 48
2019-05-22 09:00:00 18.3 4 Este 11 Sudeste 0 950.6 0.9 50
2019-05-22 08:00:00 16.4 4 Este 7 Este 0 950.4 0.8 57
2019-05-22 07:00:00 14.5 5 Sudeste 8 Sur 0 949.9 0.4 62
2019-05-22 06:00:00 15.1 4 Oeste 10 Sudoeste 0 949.7 0.1 59
2019-05-22 05:00:00 16.3 3 Nordeste 11 Oeste 0 949.6 -0.2 55
2019-05-22 04:00:00 16.5 4 Sudoeste 7 Sudoeste 0 949.5 0 53
2019-05-22 03:00:00 17.1 3 Sudoeste 7 Sur 0 949.6 0.5 52
2019-05-22 02:00:00 18.5 7 Sudoeste 24 Sudoeste 0 949.8 1 47
2019-05-22 01:00:00 19.8 8 Oeste 37 Oeste 0 949.5 1.4 45
2019-05-22 00:00:00 21.1 19 Oeste 35 Oeste 0 949.1 1.5 36
2019-05-21 23:00:00 21.2 10 Oeste 18 Oeste 0 948.8 1.8 32
2019-05-21 22:00:00 21.9 9 Oeste 15 Oeste 0 948.1 1.4 30
2019-05-21 21:00:00 23.6 8 Oeste 19 Noroeste 0 947.6 0.6 27
2019-05-21 20:00:00 25.4 8 Noroeste 27 Noroeste 0 947 0 23
2019-05-21 19:00:00 26 14 Oeste 37 Noroeste 0 946.7 -0.4 23
2019-05-21 18:00:00 25.9 14 Noroeste 32 Noroeste 0 947 -0.4 26
2019-05-21 17:00:00 25.5 14 Noroeste 32 Noroeste 0 947 -0.8 27
2019-05-21 16:00:00 25.8 15 Noroeste 33 Norte 0 947.1 -1.1 25
2019-05-21 15:00:00 25.1 15 Noroeste 30 Noroeste 0 947.4 -0.9 26
2019-05-21 14:00:00 24.4 12 Noroeste 28 Noroeste 0 947.8 -0.6 28
2019-05-21 13:00:00 23.6 17 Noroeste 28 Noroeste 0 948.2 -0.1 31
2019-05-21 12:00:00 22.7 11 Norte 23 Norte 0 948.3 0.2 35
2019-05-21 11:00:00 20.2 5 Norte 12 Noroeste 0 948.4 0.7 40
2019-05-21 10:00:00 18.6 3 Nordeste 8 Norte 0 948.3 1.2 42
2019-05-21 09:00:00 16.4 3 Nordeste 6 Noroeste 0 948.1 1.2 47
2019-05-21 08:00:00 14 3 Noroeste 8 Sudoeste 0 947.7 1 51
2019-05-21 07:00:00 12.8 3 Sudoeste 10 Sur 0 947.1 0.5 52
2019-05-21 06:00:00 13.5 5 Sur 9 Sudeste 0 946.9 0.2 51
2019-05-21 05:00:00 14.3 2 Oeste 9 Sur 0 946.7 -0.3 48
2019-05-21 04:00:00 15.7 7 Sur 13 Sur 0 946.6 -0.5 44
2019-05-21 03:00:00 16.9 8 Sur 12 Sur 0 946.7 -0.3 40
2019-05-21 02:00:00 18.6 5 Este 34 Oeste 0 947 0.4 34
2019-05-21 01:00:00 19.3 17 Oeste 34 Oeste 0 947.1 1.3 33
2019-05-21 00:00:00 19.5 21 Oeste 35 Oeste 0 947 1.6 33